Time;durP1;ratioP1;P1;durP2;ratioP2;P2;SDS_P1;SDS_P2;PMS_P1;PMS_P2;Temp;Humidity;BMP_temperature;BMP_pressure;BME280_temperature;BME280_humidity;BME280_pressure;Samples;Min_cycle;Max_cycle;Signal;HPM_P1;HPM_P2
2023/03/13 04:03:32;;;;;;;18.80;10.80;;;;;;;1.24;72.99;99414.04;104039;1251;106176;-67
2023/03/13 04:06:00;;;;;;;21.20;12.00;;;;;;;1.24;73.19;99411.81;103725;1248;138958;-68
2023/03/13 04:08:28;;;;;;;19.40;11.00;;;;;;;1.24;73.41;99406.33;104025;1250;106671;-69
2023/03/13 04:10:56;;;;;;;19.70;11.10;;;;;;;1.25;73.76;99406.66;103631;1248;96495;-68
2023/03/13 04:13:27;;;;;;;22.40;11.70;;;;;;;1.24;74.27;99406.84;102886;1251;1002486;-68
2023/03/13 04:15:58;;;;;;;20.70;11.40;;;;;;;1.23;74.39;99399.14;103744;1248;108540;-68
2023/03/13 04:18:25;;;;;;;18.80;10.80;;;;;;;1.25;74.46;99402.55;103950;1248;138268;-68
2023/03/13 04:21:02;;;;;;;18.50;11.80;;;;;;;1.26;74.61;99393.31;102940;1250;1003574;-68
2023/03/13 04:23:34;;;;;;;18.50;11.30;;;;;;;1.27;75.42;99399.14;103665;1253;138645;-69
2023/03/13 04:26:22;;;;;;;20.00;11.70;;;;;;;1.25;75.76;99389.36;103811;1251;109582;-67
2023/03/13 04:29:05;;;;;;;20.60;11.80;;;;;;;1.25;75.74;99388.50;103784;1248;107720;-67
2023/03/13 04:31:59;;;;;;;19.00;11.20;;;;;;;1.26;75.69;99381.33;103709;1251;96589;-67
2023/03/13 04:35:01;;;;;;;17.70;11.00;;;;;;;1.25;76.66;99375.66;103151;1256;107917;-67
2023/03/13 04:37:48;;;;;;;19.00;12.10;;;;;;;1.23;76.47;99368.32;103077;1255;137967;-66
2023/03/13 04:40:35;;;;;;;23.90;13.00;;;;;;;1.23;76.99;99366.95;103178;1256;108994;-66
2023/03/13 04:43:28;;;;;;;23.20;13.10;;;;;;;1.23;77.49;99361.81;102860;1256;138296;-66
2023/03/13 04:46:17;;;;;;;24.90;13.40;;;;;;;1.20;78.08;99365.95;103213;1256;96365;-66
2023/03/13 04:49:10;;;;;;;23.50;13.80;;;;;;;1.18;78.84;99371.11;103029;1256;138021;-67
2023/03/13 04:52:08;;;;;;;24.70;12.90;;;;;;;1.16;78.56;99368.21;103012;1256;96612;-67
2023/03/13 04:54:56;;;;;;;25.00;13.80;;;;;;;1.17;79.31;99366.66;102951;1260;138098;-67
2023/03/13 04:57:56;;;;;;;23.20;14.10;;;;;;;1.16;79.91;99357.77;102946;1256;107916;-67
2023/03/13 05:00:42;;;;;;;24.10;12.50;;;;;;;1.16;79.64;99361.70;102872;1256;138253;-67
2023/03/13 05:03:36;;;;;;;25.00;14.20;;;;;;;1.16;79.94;99353.49;102668;1258;1002158;-67
2023/03/13 05:06:23;;;;;;;25.10;14.40;;;;;;;1.17;80.32;99347.31;102846;1258;138532;-67
2023/03/13 05:09:26;;;;;;;22.10;13.90;;;;;;;1.18;80.39;99345.08;103105;1256;110156;-67
2023/03/13 05:12:16;;;;;;;19.80;13.50;;;;;;;1.18;80.74;99345.77;102917;1256;138353;-67
2023/03/13 05:15:14;;;;;;;25.90;14.80;;;;;;;1.18;81.25;99350.90;102996;1261;96444;-68
2023/03/13 05:18:05;;;;;;;21.60;13.80;;;;;;;1.18;81.31;99343.71;103298;1256;138952;-68
2023/03/13 05:20:55;;;;;;;22.90;13.90;;;;;;;1.19;81.17;99334.29;102360;1256;1003597;-68
2023/03/13 05:23:51;;;;;;;23.40;14.60;;;;;;;1.22;81.20;99337.16;101863;1256;1002632;-68
2023/03/13 05:26:45;;;;;;;23.30;14.70;;;;;;;1.25;81.54;99342.61;103188;1256;107345;-67
2023/03/13 05:29:32;;;;;;;25.10;14.70;;;;;;;1.28;81.63;99341.58;103325;1256;138631;-69
2023/03/13 05:32:16;;;;;;;22.80;15.20;;;;;;;1.31;82.02;99346.52;102303;1255;1003824;-68
2023/03/13 05:35:13;;;;;;;21.70;13.70;;;;;;;1.34;81.91;99344.09;103093;1264;94699;-68
2023/03/13 05:38:06;;;;;;;24.30;15.40;;;;;;;1.36;83.33;99333.27;102689;1258;109346;-67
2023/03/13 05:41:05;;;;;;;24.70;15.40;;;;;;;1.38;83.14;99338.73;102780;1256;107369;-68
2023/03/13 05:43:59;;;;;;;25.70;15.30;;;;;;;1.40;83.30;99341.10;103256;1250;96437;-68
2023/03/13 05:46:53;;;;;;;27.50;16.00;;;;;;;1.41;83.52;99345.55;102793;1250;1003707;-68
2023/03/13 05:49:59;;;;;;;24.30;15.50;;;;;;;1.44;83.71;99350.34;103079;1256;96359;-68
2023/03/13 05:52:46;;;;;;;24.40;15.70;;;;;;;1.47;83.37;99343.46;102869;1256;109779;-69
2023/03/13 05:55:33;;;;;;;27.10;16.10;;;;;;;1.50;83.25;99347.70;102747;1260;138264;-70
2023/03/13 05:58:19;;;;;;;26.70;15.60;;;;;;;1.53;83.61;99346.30;103304;1256;96949;-69
2023/03/13 06:01:12;;;;;;;25.30;15.30;;;;;;;1.57;83.16;99348.66;102842;1260;138000;-69
2023/03/13 06:03:59;;;;;;;30.50;16.80;;;;;;;1.61;83.87;99345.36;103105;1256;96343;-68
2023/03/13 06:06:38;;;;;;;28.20;17.20;;;;;;;1.64;83.71;99340.03;102155;1261;1003263;-68
2023/03/13 06:09:18;;;;;;;29.20;17.50;;;;;;;1.68;84.09;99339.30;103066;1256;107906;-68
2023/03/13 06:12:07;;;;;;;25.80;15.60;;;;;;;1.71;84.69;99335.84;102931;1256;138292;-68
2023/03/13 06:14:55;;;;;;;31.80;18.40;;;;;;;1.73;85.16;99336.31;102553;1264;107817;-68
2023/03/13 06:17:42;;;;;;;28.30;17.50;;;;;;;1.74;85.48;99332.20;102339;1267;139554;-68
2023/03/13 06:20:24;;;;;;;26.70;16.60;;;;;;;1.74;85.35;99330.65;101846;1265;1002847;-67
2023/03/13 06:23:11;;;;;;;29.00;18.60;;;;;;;1.75;85.60;99327.03;102902;1256;107699;-67
2023/03/13 06:26:00;;;;;;;27.30;17.90;;;;;;;1.76;86.02;99329.08;102848;1256;138203;-67
2023/03/13 06:28:41;;;;;;;29.10;17.90;;;;;;;1.75;86.51;99324.98;102944;1256;108099;-70
2023/03/13 06:31:28;;;;;;;31.50;17.20;;;;;;;1.75;86.51;99326.86;102165;1260;1003114;-67
2023/03/13 06:33:59;;;;;;;30.50;19.00;;;;;;;1.74;86.66;99328.08;103099;1257;110152;-65
2023/03/13 06:36:45;;;;;;;27.10;17.70;;;;;;;1.75;86.57;99329.95;102466;1260;1002983;-68
2023/03/13 06:39:33;;;;;;;31.70;18.40;;;;;;;1.76;86.74;99328.40;102205;1259;1003029;-67
2023/03/13 06:42:19;;;;;;;31.40;19.20;;;;;;;1.78;87.02;99331.80;102066;1256;1003500;-67
2023/03/13 06:45:08;;;;;;;32.40;18.80;;;;;;;1.82;87.07;99334.69;102903;1257;96573;-68
2023/03/13 06:47:56;;;;;;;33.70;19.20;;;;;;;1.86;87.21;99329.84;102766;1261;138358;-71
2023/03/13 06:50:39;;;;;;;31.40;19.60;;;;;;;1.89;87.57;99327.06;102928;1259;107586;-68
2023/03/13 06:53:07;;;;;;;32.90;19.50;;;;;;;1.91;87.23;99322.41;103573;1250;96343;-67
2023/03/13 06:55:37;;;;;;;35.60;20.30;;;;;;;1.94;87.27;99319.95;102468;1252;1003664;-67
2023/03/13 06:58:04;;;;;;;32.30;20.30;;;;;;;1.99;87.51;99321.29;103436;1250;96469;-67
2023/03/13 07:00:52;;;;;;;30.80;19.60;;;;;;;2.03;87.43;99323.45;104224;1249;138032;-68
2023/03/13 07:03:40;;;;;;;30.20;17.60;;;;;;;2.06;87.14;99322.05;103499;1250;106757;-67
2023/03/13 07:06:28;;;;;;;33.90;18.60;;;;;;;2.09;86.96;99319.25;103766;1251;138180;-68
2023/03/13 07:09:15;;;;;;;29.60;19.10;;;;;;;2.15;87.34;99314.90;103457;1250;107406;-67
2023/03/13 07:11:53;;;;;;;33.70;18.20;;;;;;;2.21;87.64;99313.45;102528;1250;1003097;-67
2023/03/13 07:14:40;;;;;;;28.70;18.50;;;;;;;2.27;87.29;99307.20;102733;1252;1002481;-67
2023/03/13 07:17:28;;;;;;;25.70;16.30;;;;;;;2.32;87.11;99307.97;103301;1250;107002;-67
2023/03/13 07:20:16;;;;;;;28.20;17.90;;;;;;;2.36;86.92;99309.64;102757;1250;1002848;-67
2023/03/13 07:23:04;;;;;;;28.90;16.70;;;;;;;2.42;86.90;99309.73;103312;1250;108238;-68
2023/03/13 07:25:44;;;;;;;29.50;17.10;;;;;;;2.47;86.88;99308.63;103114;1252;140652;-68
2023/03/13 07:28:33;;;;;;;23.70;15.00;;;;;;;2.52;86.77;99307.20;103580;1253;112261;-68
2023/03/13 07:31:18;;;;;;;24.80;16.00;;;;;;;2.56;86.59;99301.80;103742;1250;138991;-67
2023/03/13 07:34:06;;;;;;;25.10;15.30;;;;;;;2.62;86.75;99300.16;102563;1252;1003186;-68
2023/03/13 07:36:53;;;;;;;27.70;16.30;;;;;;;2.67;87.07;99296.48;103175;1250;138450;-67
2023/03/13 07:39:41;;;;;;;25.50;15.60;;;;;;;2.71;86.63;99292.14;103427;1252;96984;-68
2023/03/13 07:42:28;;;;;;;21.20;14.40;;;;;;;2.79;86.47;99288.23;103653;1250;138191;-67
2023/03/13 07:44:58;;;;;;;23.90;14.90;;;;;;;2.89;86.46;99280.69;103348;1250;105701;-67
2023/03/13 07:47:46;;;;;;;25.70;14.20;;;;;;;3.02;86.45;99283.89;103376;1251;138305;-68
2023/03/13 07:50:33;;;;;;;22.80;14.40;;;;;;;3.12;86.06;99278.41;103471;1252;107539;-67
2023/03/13 07:53:04;;;;;;;25.90;15.20;;;;;;;3.19;85.93;99281.20;103495;1252;96427;-68
2023/03/13 07:55:58;;;;;;;23.20;14.80;;;;;;;3.29;85.84;99281.21;102670;1250;1002856;-68
2023/03/13 07:58:47;;;;;;;23.10;14.20;;;;;;;3.37;85.82;99288.77;103399;1250;107795;-68
2023/03/13 08:01:35;;;;;;;25.70;14.10;;;;;;;3.45;85.51;99275.58;103298;1251;138072;-68
2023/03/13 08:04:22;;;;;;;23.50;14.20;;;;;;;3.59;85.42;99272.56;101904;1250;1003517;-67
2023/03/13 08:07:07;;;;;;;22.10;13.20;;;;;;;3.73;85.27;99271.93;103159;1250;138502;-68
2023/03/13 08:09:35;;;;;;;22.50;13.20;;;;;;;3.83;85.00;99273.30;102773;1250;1002585;-67
2023/03/13 08:12:23;;;;;;;18.60;12.70;;;;;;;3.93;84.69;99266.88;103314;1250;138707;-67
2023/03/13 08:15:12;;;;;;;24.50;12.20;;;;;;;4.03;84.44;99263.56;103725;1250;96444;-67
2023/03/13 08:17:50;;;;;;;20.00;13.40;;;;;;;4.12;84.18;99263.20;103854;1250;138660;-68
2023/03/13 08:20:38;;;;;;;20.30;13.50;;;;;;;4.21;83.95;99258.02;102449;1253;1002738;-68
2023/03/13 08:23:23;;;;;;;;;;;;;;;4.28;83.64;99266.63;103306;1251;111075;-68
2023/03/13 08:26:14;;;;;;;20.70;13.00;;;;;;;4.32;83.74;99263.30;103254;1250;109185;-69
2023/03/13 08:28:55;;;;;;;17.30;12.10;;;;;;;4.36;83.53;99264.05;103353;1250;96441;-69
2023/03/13 08:31:24;;;;;;;18.30;12.80;;;;;;;4.42;83.28;99270.46;103238;1250;138135;-68
2023/03/13 08:33:52;;;;;;;20.10;11.90;;;;;;;4.46;83.43;99263.64;102564;1249;1002945;-68
2023/03/13 08:36:40;;;;;;;19.30;11.60;;;;;;;4.51;83.42;99256.13;103261;1250;138589;-68
2023/03/13 08:39:28;;;;;;;18.00;11.00;;;;;;;4.58;83.27;99262.51;103407;1253;108772;-69
2023/03/13 08:42:16;;;;;;;21.40;12.60;;;;;;;4.64;83.09;99254.42;103322;1252;138480;-68
2023/03/13 08:44:56;;;;;;;17.60;11.40;;;;;;;4.70;83.13;99245.70;103364;1249;109050;-68
2023/03/13 08:47:43;;;;;;;20.90;11.60;;;;;;;4.77;82.92;99240.19;103369;1253;96444;-68
2023/03/13 08:50:30;;;;;;;18.30;11.50;;;;;;;4.83;82.69;99233.47;103313;1250;110619;-68
2023/03/13 08:53:18;;;;;;;20.00;11.50;;;;;;;4.90;82.65;99226.09;103374;1255;107765;-69
2023/03/13 08:55:55;;;;;;;21.50;12.50;;;;;;;5.00;82.63;99218.76;103254;1252;138261;-69
2023/03/13 08:58:43;;;;;;;22.40;12.20;;;;;;;5.17;82.66;99213.30;103267;1250;107731;-69
2023/03/13 09:01:32;;;;;;;23.20;11.90;;;;;;;5.42;82.29;99205.55;103294;1250;138384;-69
2023/03/13 09:04:12;;;;;;;20.10;11.80;;;;;;;5.75;81.68;99202.02;103391;1250;110183;-69
2023/03/13 09:07:00;;;;;;;17.10;10.40;;;;;;;6.13;80.85;99196.08;102426;1250;1002643;-69
2023/03/13 09:09:48;;;;;;;19.30;10.90;;;;;;;6.46;80.28;99193.30;103410;1253;96981;-68
2023/03/13 09:12:35;;;;;;;21.40;9.80;;;;;;;6.79;79.81;99188.95;103228;1250;138342;-69
2023/03/13 09:15:23;;;;;;;17.20;10.00;;;;;;;7.21;78.80;99180.23;103352;1251;97127;-69
2023/03/13 09:17:54;;;;;;;21.80;10.40;;;;;;;7.55;78.22;99173.96;103379;1253;109726;-68
2023/03/13 09:20:24;;;;;;;17.40;9.30;;;;;;;7.81;77.05;99166.42;103345;1250;107199;-68
2023/03/13 09:23:02;;;;;;;17.00;8.20;;;;;;;8.08;76.61;99161.90;103205;1253;96443;-69
2023/03/13 09:25:41;;;;;;;18.00;7.90;;;;;;;8.45;75.14;99157.69;103221;1249;137991;-67
2023/03/13 09:28:09;;;;;;;16.60;7.80;;;;;;;8.75;74.83;99158.02;103293;1253;96425;-67
2023/03/13 09:30:36;;;;;;;14.00;7.20;;;;;;;8.99;73.27;99151.78;103308;1251;138032;-68
2023/03/13 09:33:24;;;;;;;13.70;7.00;;;;;;;9.23;73.16;99144.66;103244;1250;108250;-69
2023/03/13 09:36:03;;;;;;;16.60;7.70;;;;;;;9.38;73.02;99138.44;103246;1252;138359;-70
2023/03/13 09:38:51;;;;;;;11.00;6.80;;;;;;;9.54;71.86;99145.34;103313;1251;111534;-69
2023/03/13 09:41:43;;;;;;;19.20;7.70;;;;;;;9.65;71.33;99138.21;103383;1253;96472;-69
2023/03/13 09:44:26;;;;;;;9.90;6.30;;;;;;;9.81;70.86;99137.14;103295;1254;110267;-69
2023/03/13 09:47:21;;;;;;;12.50;6.00;;;;;;;9.98;70.45;99129.95;103272;1252;106697;-70
2023/03/13 09:50:14;;;;;;;12.50;6.00;;;;;;;9.95;70.22;99122.61;103255;1253;138269;-69
2023/03/13 09:52:54;;;;;;;12.90;6.80;;;;;;;9.90;69.85;99125.46;103344;1250;108202;-69
2023/03/13 09:55:30;;;;;;;14.00;6.80;;;;;;;9.90;70.04;99118.16;103086;1255;139633;-69
2023/03/13 09:58:08;;;;;;;14.00;6.40;;;;;;;9.91;69.42;99113.96;103285;1253;111064;-69
2023/03/13 10:00:39;;;;;;;13.70;6.70;;;;;;;9.86;69.51;99111.73;103193;1256;138371;-70
2023/03/13 10:03:23;;;;;;;13.00;5.70;;;;;;;9.90;69.60;99105.15;104873;1249;94906;-73
2023/03/13 10:05:53;;;;;;;13.60;5.60;;;;;;;9.97;69.82;99102.02;104908;1250;106581;-69
2023/03/13 10:08:32;;;;;;;16.40;6.30;;;;;;;10.02;69.38;99101.26;104778;1250;94637;-70
2023/03/13 10:11:06;;;;;;;16.40;6.10;;;;;;;10.02;68.83;99101.59;104849;1250;109522;-70
2023/03/13 10:13:42;;;;;;;15.90;6.30;;;;;;;9.99;69.26;99097.95;104732;1250;138262;-70
2023/03/13 10:16:13;;;;;;;15.70;6.60;;;;;;;10.03;69.56;99100.67;104890;1250;94653;-71
2023/03/13 10:18:48;;;;;;;17.80;5.90;;;;;;;10.07;68.96;99105.20;104745;1249;138831;-71
2023/03/13 10:21:19;;;;;;;12.50;5.40;;;;;;;10.03;68.37;99105.55;104759;1250;94790;-69
2023/03/13 10:23:55;;;;;;;15.30;5.90;;;;;;;9.97;68.68;99097.52;104927;1250;109377;-69
2023/03/13 10:26:34;;;;;;;17.70;6.30;;;;;;;9.92;68.45;99098.44;104802;1250;107538;-68
2023/03/13 10:29:22;;;;;;;16.00;5.90;;;;;;;9.85;68.40;99104.32;104831;1250;94726;-67
2023/03/13 10:31:56;;;;;;;13.40;5.40;;;;;;;9.81;68.84;99099.33;104637;1250;138261;-68
2023/03/13 10:34:23;;;;;;;20.00;6.00;;;;;;;9.77;68.91;99096.55;104881;1252;94635;-69
2023/03/13 10:36:56;;;;;;;13.80;5.80;;;;;;;9.75;68.96;99094.77;104859;1251;137955;-69
2023/03/13 10:39:26;;;;;;;14.90;5.60;;;;;;;9.74;69.12;99091.33;104885;1250;107726;-68
2023/03/13 10:42:00;;;;;;;16.60;6.60;;;;;;;9.70;69.11;99080.58;104905;1250;94678;-68
2023/03/13 10:44:33;;;;;;;13.80;5.30;;;;;;;9.67;69.44;99070.77;104783;1250;137701;-69
2023/03/13 10:47:14;;;;;;;15.00;5.20;;;;;;;9.65;69.75;99074.88;104889;1251;94671;-68
2023/03/13 10:49:50;;;;;;;15.60;5.60;;;;;;;9.64;70.08;99061.39;104836;1250;138731;-69
2023/03/13 10:52:32;;;;;;;14.40;5.60;;;;;;;9.63;70.43;99057.63;104899;1251;107386;-69
2023/03/13 10:55:04;;;;;;;14.50;5.70;;;;;;;9.65;70.78;99059.09;104817;1250;138576;-69
2023/03/13 10:57:34;;;;;;;15.30;5.90;;;;;;;9.66;70.77;99056.96;104895;1249;108817;-69
2023/03/13 11:00:10;;;;;;;12.10;5.20;;;;;;;9.69;71.04;99049.91;104899;1250;94370;-69
2023/03/13 11:02:39;;;;;;;13.40;5.20;;;;;;;9.72;71.01;99042.46;104908;1250;108916;-69
2023/03/13 11:05:37;;;;;;;15.60;5.50;;;;;;;9.75;70.66;99038.15;104866;1250;107957;-69
2023/03/13 11:08:19;;;;;;;12.80;5.70;;;;;;;9.78;70.78;99038.52;104842;1253;139566;-68
2023/03/13 11:11:00;;;;;;;14.70;5.70;;;;;;;9.84;70.38;99032.85;104922;1251;105865;-68
2023/03/13 11:13:37;;;;;;;;;;;;;;;9.85;69.47;99028.63;104799;1250;138287;-68
2023/03/13 11:16:14;;;;;;;16.00;5.30;;;;;;;9.85;69.48;99030.70;104915;1251;109941;-68
2023/03/13 11:18:51;;;;;;;16.60;5.50;;;;;;;9.90;69.60;99024.40;104758;1249;138758;-67
2023/03/13 11:21:24;;;;;;;16.00;5.10;;;;;;;10.01;69.43;99015.70;104860;1251;94550;-67
2023/03/13 11:24:00;;;;;;;13.60;5.20;;;;;;;10.12;68.21;99021.04;104941;1249;107194;-67
2023/03/13 11:26:36;;;;;;;12.50;5.20;;;;;;;10.23;68.06;98997.25;104772;1251;138154;-68
2023/03/13 11:29:13;;;;;;;14.60;4.70;;;;;;;10.36;67.66;98996.79;104944;1250;109732;-68
2023/03/13 11:31:44;;;;;;;13.80;4.90;;;;;;;10.50;66.84;98976.42;104705;1249;139007;-68
2023/03/13 11:34:22;;;;;;;12.40;4.80;;;;;;;10.62;65.97;98978.41;104729;1250;95823;-68
2023/03/13 11:37:00;;;;;;;12.40;4.20;;;;;;;10.72;65.38;98962.35;104766;1253;138317;-69
2023/03/13 11:39:50;;;;;;;16.20;5.20;;;;;;;10.83;64.90;98967.89;104924;1252;94963;-69
2023/03/13 11:42:37;;;;;;;13.60;5.30;;;;;;;10.95;64.83;98954.71;104825;1249;140241;-69
2023/03/13 11:45:16;;;;;;;17.80;5.10;;;;;;;11.09;64.94;98941.77;104866;1250;107846;-69
2023/03/13 11:47:53;;;;;;;16.50;5.00;;;;;;;11.20;64.33;98938.02;104112;1252;1003454;-69
2023/03/13 11:50:52;;;;;;;11.70;4.90;;;;;;;11.33;64.39;98927.73;104763;1251;138418;-67
2023/03/13 11:53:38;;;;;;;13.30;4.50;;;;;;;11.45;64.32;98934.33;104878;1252;94254;-69
2023/03/13 11:56:13;;;;;;;15.50;5.40;;;;;;;11.52;63.80;98928.39;104762;1251;137369;-67
2023/03/13 11:59:07;;;;;;;14.80;5.30;;;;;;;11.56;63.54;98924.18;104853;1253;108271;-67
2023/03/13 12:01:40;;;;;;;14.00;5.10;;;;;;;11.57;62.79;98927.80;104688;1250;138020;-69
2023/03/13 12:04:17;;;;;;;16.90;5.10;;;;;;;11.47;62.24;98930.58;104789;1253;108642;-68
2023/03/13 12:06:50;;;;;;;12.90;5.10;;;;;;;11.35;61.58;98929.86;104727;1251;137728;-67
2023/03/13 12:09:22;;;;;;;15.70;5.10;;;;;;;11.29;62.70;98919.06;104820;1251;110220;-67
2023/03/13 12:11:58;;;;;;;13.00;5.20;;;;;;;11.30;63.22;98912.59;104886;1251;107466;-69
2023/03/13 12:14:30;;;;;;;13.70;5.30;;;;;;;11.34;63.08;98919.69;104786;1251;137361;-67
2023/03/13 12:17:03;;;;;;;18.00;5.20;;;;;;;11.35;63.28;98926.74;104897;1249;106508;-68
2023/03/13 12:19:34;;;;;;;19.80;5.00;;;;;;;11.30;62.21;98923.05;104769;1251;137714;-68
2023/03/13 12:22:14;;;;;;;19.00;5.50;;;;;;;11.21;62.86;98917.11;104137;1251;1002432;-68
2023/03/13 12:24:50;;;;;;;13.00;5.00;;;;;;;11.15;63.26;98915.02;104767;1254;138487;-68
2023/03/13 12:27:31;;;;;;;14.20;5.30;;;;;;;11.08;62.98;98901.95;104941;1249;94532;-69
2023/03/13 12:30:03;;;;;;;15.50;4.90;;;;;;;11.03;63.82;98905.08;104812;1252;107483;-69
2023/03/13 12:32:37;;;;;;;16.10;4.90;;;;;;;11.00;64.14;98901.93;104833;1251;138004;-69
2023/03/13 12:35:16;;;;;;;16.80;5.40;;;;;;;10.99;64.37;98889.80;104819;1253;111223;-68
2023/03/13 12:37:52;;;;;;;15.30;5.10;;;;;;;10.95;64.40;98893.14;104757;1251;137576;-69
2023/03/13 12:40:46;;;;;;;14.00;5.00;;;;;;;10.91;64.90;98891.82;104866;1251;94733;-68
2023/03/13 12:43:21;;;;;;;14.40;5.10;;;;;;;10.84;65.08;98889.77;103971;1251;1003428;-69
2023/03/13 12:46:05;;;;;;;16.00;5.20;;;;;;;10.78;65.54;98891.83;104855;1251;94750;-68
2023/03/13 12:48:56;;;;;;;18.50;5.20;;;;;;;10.72;66.24;98886.05;104736;1251;138740;-68
2023/03/13 12:51:38;;;;;;;14.00;4.50;;;;;;;10.66;66.74;98873.21;104696;1251;107951;-66
2023/03/13 12:54:33;;;;;;;19.40;5.20;;;;;;;10.61;67.29;98872.94;104105;1253;1002607;-67
2023/03/13 12:57:23;;;;;;;20.90;5.50;;;;;;;10.55;67.61;98874.47;104883;1251;107758;-67
2023/03/13 12:59:55;;;;;;;17.40;5.30;;;;;;;10.46;68.16;98870.60;104872;1251;94436;-67
2023/03/13 13:02:31;;;;;;;15.80;5.00;;;;;;;10.39;68.58;98865.08;104654;1251;137960;-67
2023/03/13 13:05:02;;;;;;;17.30;6.10;;;;;;;10.33;69.06;98864.36;104808;1251;108493;-67
2023/03/13 13:07:32;;;;;;;20.70;5.90;;;;;;;10.27;69.53;98861.04;104751;1251;138915;-67
2023/03/13 13:10:21;;;;;;;14.10;5.50;;;;;;;10.22;70.24;98858.68;104744;1253;222688;-68
2023/03/13 13:13:09;;;;;;;18.90;6.10;;;;;;;10.15;70.84;98857.64;104709;1250;140801;-68
2023/03/13 13:15:58;;;;;;;19.40;5.90;;;;;;;10.08;71.52;98849.66;104832;1250;111354;-67
2023/03/13 13:18:31;;;;;;;15.70;5.50;;;;;;;10.01;72.54;98844.46;104759;1251;139497;-67
2023/03/13 13:21:25;;;;;;;18.20;5.60;;;;;;;9.94;72.83;98837.52;104932;1251;94564;-67
2023/03/13 13:24:41;;;;;;;20.50;5.80;;;;;;;9.87;73.53;98840.36;104872;1253;107407;-67
2023/03/13 13:27:45;;;;;;;21.70;6.30;;;;;;;9.80;74.10;98838.29;104926;1252;94567;-67
2023/03/13 13:30:34;;;;;;;14.50;5.40;;;;;;;9.73;75.04;98833.46;104811;1251;139207;-68
2023/03/13 13:33:37;;;;;;;16.10;5.80;;;;;;;9.66;75.19;98821.78;104866;1250;106194;-67
2023/03/13 13:36:29;;;;;;;17.80;5.70;;;;;;;9.60;76.06;98826.10;104774;1251;94927;-67
2023/03/13 13:38:57;;;;;;;18.10;6.20;;;;;;;9.52;76.91;98819.40;104827;1251;106956;-67
2023/03/13 13:41:40;;;;;;;19.50;5.70;;;;;;;9.45;77.15;98825.12;104913;1251;94768;-67
2023/03/13 13:44:30;;;;;;;17.70;6.00;;;;;;;9.40;77.50;98820.73;104775;1253;138487;-67
2023/03/13 13:47:00;;;;;;;18.80;5.60;;;;;;;9.35;78.25;98817.51;104863;1249;108339;-69
2023/03/13 13:49:55;;;;;;;13.40;5.30;;;;;;;9.30;79.07;98821.89;104763;1251;138552;-67
2023/03/13 13:52:39;;;;;;;19.00;6.00;;;;;;;9.25;80.00;98815.03;104771;1251;106407;-67
2023/03/13 13:55:44;;;;;;;23.80;6.20;;;;;;;9.20;80.53;98816.16;104793;1251;138428;-68
2023/03/13 13:58:18;;;;;;;17.40;5.60;;;;;;;9.14;81.76;98824.25;104938;1251;109956;-69
2023/03/13 14:00:50;;;;;;;19.90;6.10;;;;;;;9.08;81.78;98818.96;104762;1250;138739;-69
2023/03/13 14:03:22;;;;;;;16.50;6.40;;;;;;;9.05;82.79;98812.36;104891;1251;94748;-69
2023/03/13 14:05:54;;;;;;;16.70;5.50;;;;;;;9.03;82.99;98802.27;104915;1251;107926;-70
2023/03/13 14:08:29;;;;;;;18.20;5.40;;;;;;;9.01;83.29;98793.14;104798;1251;139451;-69
2023/03/13 14:11:10;;;;;;;13.90;4.60;;;;;;;9.01;83.36;98795.42;104734;1250;110465;-68
2023/03/13 14:13:37;;;;;;;12.00;4.10;;;;;;;8.98;84.11;98793.31;104789;1251;137849;-68
2023/03/13 14:16:24;;;;;;;13.50;4.80;;;;;;;8.97;83.38;98781.02;104918;1251;94776;-69
2023/03/13 14:18:55;;;;;;;14.20;4.10;;;;;;;8.98;83.23;98777.36;104801;1251;140187;-67
2023/03/13 14:21:26;;;;;;;13.50;4.30;;;;;;;8.98;82.97;98772.34;104926;1251;94624;-69
2023/03/13 14:23:53;;;;;;;11.50;3.90;;;;;;;8.99;83.16;98770.36;104946;1251;109147;-68
2023/03/13 14:26:22;;;;;;;14.60;4.30;;;;;;;9.01;82.87;98760.38;104749;1251;139146;-67
2023/03/13 14:28:51;;;;;;;12.40;4.30;;;;;;;9.03;82.77;98755.06;104913;1251;95052;-69
2023/03/13 14:31:30;;;;;;;15.90;4.00;;;;;;;9.04;82.86;98762.82;104771;1249;138372;-67
2023/03/13 14:33:59;;;;;;;12.70;4.10;;;;;;;9.04;82.45;98749.14;104917;1250;94679;-67
2023/03/13 14:36:45;;;;;;;15.80;5.10;;;;;;;9.05;82.72;98737.45;104900;1251;109467;-67
2023/03/13 14:39:20;;;;;;;14.40;4.50;;;;;;;9.08;82.76;98727.28;104914;1251;106151;-67
2023/03/13 14:41:51;;;;;;;13.90;4.60;;;;;;;9.09;82.47;98721.49;104912;1251;94700;-68
2023/03/13 14:44:24;;;;;;;12.80;4.30;;;;;;;9.12;82.45;98725.19;104011;1251;1002389;-67
2023/03/13 14:46:57;;;;;;;13.20;4.60;;;;;;;9.13;82.10;98719.38;104831;1251;94625;-68
2023/03/13 14:49:28;;;;;;;16.90;5.10;;;;;;;9.15;82.36;98716.54;104773;1251;138164;-67
2023/03/13 14:52:03;;;;;;;15.00;4.90;;;;;;;9.15;82.61;98702.81;104907;1249;107185;-68
2023/03/13 14:54:33;;;;;;;14.40;5.10;;;;;;;9.15;82.70;98700.03;104940;1250;95125;-67
2023/03/13 14:57:23;;;;;;;20.50;5.30;;;;;;;9.14;83.25;98706.00;104877;1249;107327;-67
2023/03/13 14:59:56;;;;;;;15.60;4.60;;;;;;;9.10;83.09;98704.80;104894;1250;94729;-67
2023/03/13 15:02:26;;;;;;;15.60;5.20;;;;;;;9.08;83.20;98707.68;104802;1249;138490;-69
2023/03/13 15:05:28;;;;;;;16.40;4.80;;;;;;;9.04;83.56;98711.16;104854;1249;107084;-69
2023/03/13 15:08:02;;;;;;;14.10;4.30;;;;;;;9.04;83.73;98703.02;104809;1251;138813;-68
2023/03/13 15:10:35;;;;;;;14.10;4.50;;;;;;;9.02;83.97;98700.52;104854;1251;108810;-69
2023/03/13 15:13:16;;;;;;;16.50;4.40;;;;;;;9.01;83.72;98701.45;104861;1249;138446;-68
2023/03/13 15:15:49;;;;;;;11.30;4.50;;;;;;;9.01;83.63;98690.16;104900;1251;111219;-67
2023/03/13 15:18:20;;;;;;;14.30;4.20;;;;;;;9.01;83.56;98702.11;104829;1250;108643;-67
2023/03/13 15:20:52;;;;;;;10.30;4.00;;;;;;;9.01;83.43;98694.33;104823;1250;138626;-67
2023/03/13 15:23:20;;;;;;;11.70;3.40;;;;;;;9.00;83.33;98696.30;104854;1250;108540;-67
2023/03/13 15:26:08;;;;;;;13.10;3.40;;;;;;;9.00;83.25;98689.71;104764;1251;138250;-68
2023/03/13 15:28:35;;;;;;;13.00;3.70;;;;;;;9.00;83.11;98687.45;104952;1247;110349;-69
2023/03/13 15:31:03;;;;;;;13.80;4.30;;;;;;;9.00;82.76;98685.22;104788;1249;138324;-68
2023/03/13 15:33:31;;;;;;;11.00;3.70;;;;;;;9.01;82.95;98691.05;104941;1249;96078;-68
2023/03/13 15:35:58;;;;;;;8.20;3.90;;;;;;;9.01;82.68;98688.61;104828;1251;108474;-67
2023/03/13 15:38:46;;;;;;;10.40;4.00;;;;;;;9.02;82.50;98683.89;104788;1249;137947;-67
2023/03/13 15:41:14;;;;;;;10.10;4.30;;;;;;;9.02;82.58;98681.46;104925;1250;109847;-68
2023/03/13 15:43:41;;;;;;;12.20;4.10;;;;;;;9.03;82.58;98681.92;104768;1249;138860;-68
2023/03/13 15:46:13;;;;;;;10.60;3.90;;;;;;;9.04;82.50;98679.29;104939;1253;97860;-68
2023/03/13 15:48:40;;;;;;;14.70;4.10;;;;;;;9.05;82.54;98684.10;104817;1251;138651;-68
2023/03/13 15:51:12;;;;;;;11.40;3.70;;;;;;;9.06;82.46;98671.20;104935;1249;95982;-68
2023/03/13 15:53:40;;;;;;;11.20;3.70;;;;;;;9.06;82.50;98678.47;104846;1248;112282;-68
2023/03/13 15:56:15;;;;;;;11.20;3.70;;;;;;;9.07;82.36;98668.02;104763;1250;138417;-68
2023/03/13 15:58:42;;;;;;;16.00;4.00;;;;;;;9.07;82.19;98675.13;104922;1250;96907;-69
2023/03/13 16:01:12;;;;;;;11.40;4.20;;;;;;;9.08;82.19;98677.16;104685;1251;138234;-69
2023/03/13 16:03:59;;;;;;;10.50;3.90;;;;;;;9.08;82.16;98684.75;104904;1250;96455;-68
2023/03/13 16:06:30;;;;;;;14.20;4.50;;;;;;;9.08;81.90;98678.34;104108;1251;1003180;-68
2023/03/13 16:09:01;;;;;;;12.20;4.60;;;;;;;9.12;81.78;98667.63;104821;1250;107262;-68
2023/03/13 16:11:29;;;;;;;12.10;4.20;;;;;;;9.12;81.67;98669.31;104898;1250;96084;-68
2023/03/13 16:13:57;;;;;;;11.00;4.00;;;;;;;9.14;81.62;98671.16;104750;1253;138639;-68
2023/03/13 16:16:39;;;;;;;13.20;4.70;;;;;;;9.14;81.47;98669.06;104909;1249;95731;-68
2023/03/13 16:19:12;;;;;;;9.60;4.40;;;;;;;9.14;81.35;98674.23;104042;1250;1002302;-68